Time;durP1;ratioP1;P1;durP2;ratioP2;P2;SDS_P1;SDS_P2;PMS_P1;PMS_P2;Temp;Humidity;BMP_temperature;BMP_pressure;BME280_temperature;BME280_humidity;BME280_pressure;Samples;Min_cycle;Max_cycle;Signal;HPM_P1;HPM_P2
2023/11/11 00:00:11;;;;;;;29.88;21.48;;;308.00;2304.00;;;;;;5071043;28;20036;-53
2023/11/11 00:02:37;;;;;;;28.35;19.50;;;332.80;2329.60;;;;;;5070929;28;20509;-54
2023/11/11 00:05:04;;;;;;;9.57;7.13;;;332.80;2329.60;;;;;;5071164;28;20443;-54
2023/11/11 00:07:29;;;;;;;19.15;13.65;;;333.00;2329.60;;;;;;5071274;28;20033;-55
2023/11/11 00:09:55;;;;;;;21.40;13.98;;;333.20;2329.60;;;;;;5069663;28;20482;-55
2023/11/11 00:12:21;;;;;;;19.02;12.60;;;333.10;2329.60;;;;;;5071084;28;20156;-54
2023/11/11 00:14:47;;;;;;;22.30;15.88;;;333.30;2329.60;;;;;;5071186;28;20429;-55
2023/11/11 00:17:13;;;;;;;12.00;8.82;;;333.30;2329.60;;;;;;5070962;28;20382;-54
2023/11/11 00:19:39;;;;;;;11.93;8.45;;;333.50;2329.60;;;;;;5070697;28;20028;-54
2023/11/11 00:22:05;;;;;;;8.48;5.15;;;333.30;2329.60;;;;;;5070953;28;20040;-54
2023/11/11 00:24:30;;;;;;;8.77;4.20;;;333.20;2329.60;;;;;;5070361;28;20384;-55
2023/11/11 00:26:57;;;;;;;4.75;3.22;;;333.20;2329.60;;;;;;5070680;28;20032;-55
2023/11/11 00:29:23;;;;;;;8.65;6.03;;;333.20;2329.60;;;;;;5070825;28;20028;-53
2023/11/11 00:31:49;;;;;;;8.57;6.90;;;333.30;2329.60;;;;;;5070661;28;20033;-53
2023/11/11 00:34:16;;;;;;;9.43;5.05;;;333.40;2329.60;;;;;;5070557;28;20060;-54
2023/11/11 00:36:42;;;;;;;8.60;5.63;;;333.50;2329.60;;;;;;5070702;28;20021;-54
2023/11/11 00:39:11;;;;;;;7.35;5.60;;;333.50;2329.60;;;;;;5069492;28;20029;-54
2023/11/11 00:41:38;;;;;;;6.03;3.35;;;333.50;2329.60;;;;;;5070254;28;20382;-54
2023/11/11 00:44:09;;;;;;;7.35;5.10;;;333.50;2329.60;;;;;;5070483;28;20024;-54
2023/11/11 00:46:39;;;;;;;13.00;8.00;;;333.50;2329.60;;;;;;5070493;28;20024;-54
2023/11/11 00:49:07;;;;;;;18.85;11.73;;;333.60;2329.60;;;;;;5070300;28;20032;-54
2023/11/11 00:51:39;;;;;;;16.42;9.75;;;333.60;2329.60;;;;;;5070505;28;20032;-54
2023/11/11 00:54:08;;;;;;;17.02;11.00;;;333.60;2329.60;;;;;;5070316;28;20290;-55
2023/11/11 00:56:34;;;;;;;30.65;20.88;;;333.60;2329.60;;;;;;5070318;28;20036;-54
2023/11/11 00:59:00;;;;;;;37.60;23.45;;;333.40;2329.60;;;;;;5069992;28;20024;-53
2023/11/11 01:01:25;;;;;;;41.17;33.42;;;333.30;2329.60;;;;;;5069785;28;20028;-55
2023/11/11 01:03:52;;;;;;;37.75;31.42;;;333.20;2329.60;;;;;;5070247;28;20029;-54
2023/11/11 01:06:18;;;;;;;19.95;15.30;;;333.20;2329.60;;;;;;5069846;28;20028;-54
2023/11/11 01:08:45;;;;;;;34.05;23.45;;;333.00;2329.60;;;;;;5070211;28;20035;-54
2023/11/11 01:11:11;;;;;;;40.08;25.77;;;333.00;2329.60;;;;;;5069283;28;20048;-54
2023/11/11 01:13:37;;;;;;;74.00;47.63;;;333.10;2329.60;;;;;;5069691;28;20059;-54
2023/11/11 01:16:03;;;;;;;61.85;39.53;;;333.00;2329.60;;;;;;5069795;28;20470;-54
2023/11/11 01:18:30;;;;;;;23.55;17.88;;;333.00;2329.60;;;;;;5069565;28;20024;-54
2023/11/11 01:21:02;;;;;;;28.25;18.77;;;333.10;2329.60;;;;;;5069561;28;20033;-55
2023/11/11 01:23:30;;;;;;;21.65;15.60;;;333.00;2329.60;;;;;;5069594;28;20027;-54
2023/11/11 01:25:57;;;;;;;41.50;25.45;;;333.20;2329.60;;;;;;5069578;28;20024;-54
2023/11/11 01:28:23;;;;;;;89.47;53.00;;;333.10;2329.60;;;;;;5069897;28;20105;-54
2023/11/11 01:30:49;;;;;;;276.30;147.75;;;333.20;2329.60;;;;;;5069479;28;20016;-54
2023/11/11 01:33:15;;;;;;;65.60;40.83;;;333.20;2329.60;;;;;;5069635;28;20073;-55
2023/11/11 01:35:42;;;;;;;268.23;134.88;;;333.20;2329.60;;;;;;5068379;28;20060;-54
2023/11/11 01:38:08;;;;;;;53.85;27.48;;;333.20;2329.60;;;;;;5069530;28;20043;-54
2023/11/11 01:40:34;;;;;;;21.67;12.85;;;333.20;2329.60;;;;;;5069708;28;20103;-53
2023/11/11 01:43:00;;;;;;;34.30;18.08;;;333.20;2329.60;;;;;;5069161;28;20398;-54
2023/11/11 01:45:27;;;;;;;11.07;7.10;;;333.20;2329.60;;;;;;5069296;28;20419;-54
2023/11/11 01:47:54;;;;;;;19.20;10.02;;;333.20;2329.60;;;;;;5069495;28;20044;-54
2023/11/11 01:50:20;;;;;;;47.15;22.13;;;333.20;2329.60;;;;;;5069118;28;20413;-52
2023/11/11 01:52:46;;;;;;;73.00;36.75;;;333.20;2329.60;;;;;;5069284;28;20027;-55
2023/11/11 01:55:12;;;;;;;102.78;48.35;;;333.20;2329.60;;;;;;5069386;28;20020;-54
2023/11/11 01:57:38;;;;;;;77.72;36.90;;;333.20;2329.60;;;;;;5069288;28;20358;-55
2023/11/11 02:00:12;;;;;;;40.45;21.20;;;333.20;2329.60;;;;;;5069362;28;20020;-53
2023/11/11 02:02:39;;;;;;;21.17;11.13;;;333.10;2329.60;;;;;;5069130;28;20032;-54
2023/11/11 02:05:06;;;;;;;20.77;14.05;;;333.10;2329.60;;;;;;5069228;28;20531;-54
2023/11/11 02:07:32;;;;;;;34.63;23.52;;;333.20;2329.60;;;;;;5069358;28;20024;-54
2023/11/11 02:09:58;;;;;;;30.92;23.05;;;332.80;2329.60;;;;;;5068948;28;20025;-54
2023/11/11 02:12:24;;;;;;;17.00;10.07;;;332.80;2329.60;;;;;;5068919;28;20053;-54
2023/11/11 02:14:50;;;;;;;24.73;18.25;;;332.90;2329.60;;;;;;5069153;28;20071;-54
2023/11/11 02:17:16;;;;;;;17.20;11.93;;;332.90;2329.60;;;;;;5068913;28;20032;-54
2023/11/11 02:19:41;;;;;;;14.02;8.98;;;332.80;2329.60;;;;;;5069071;28;20086;-54
2023/11/11 02:22:10;;;;;;;20.63;12.60;;;332.90;2329.60;;;;;;5068979;28;20041;-55
2023/11/11 02:24:37;;;;;;;24.02;15.00;;;333.00;2329.60;;;;;;5072537;28;20565;-54
2023/11/11 02:27:05;;;;;;;11.65;8.02;;;333.00;2329.60;;;;;;5073174;28;20028;-54
2023/11/11 02:29:31;;;;;;;12.70;8.35;;;333.10;2329.60;;;;;;5073013;28;20355;-54
2023/11/11 02:31:57;;;;;;;12.00;7.03;;;333.10;2329.60;;;;;;5072811;28;20060;-54
2023/11/11 02:34:23;;;;;;;17.33;10.07;;;333.20;2329.60;;;;;;5072971;28;20071;-54
2023/11/11 02:36:49;;;;;;;9.20;6.38;;;333.30;2329.60;;;;;;5072944;28;20029;-53
2023/11/11 02:39:14;;;;;;;4.65;2.78;;;333.20;2329.60;;;;;;5072861;28;20058;-54
2023/11/11 02:41:40;;;;;;;4.10;2.83;;;333.40;2329.60;;;;;;5072385;28;20062;-54
2023/11/11 02:44:06;;;;;;;4.60;2.58;;;333.30;2329.60;;;;;;5072585;28;20033;-54
2023/11/11 02:46:32;;;;;;;6.32;4.18;;;333.40;2329.60;;;;;;5072805;28;20112;-55
2023/11/11 02:48:58;;;;;;;7.32;2.85;;;333.40;2329.60;;;;;;5072390;28;20032;-54
2023/11/11 02:51:24;;;;;;;3.80;2.38;;;333.50;2329.60;;;;;;5072977;28;20074;-55
2023/11/11 02:53:49;;;;;;;3.95;2.78;;;333.50;2329.60;;;;;;5072553;28;20020;-55
2023/11/11 02:56:15;;;;;;;4.95;3.08;;;333.50;2329.60;;;;;;5072507;28;20073;-54
2023/11/11 02:58:41;;;;;;;3.80;2.42;;;333.50;2329.60;;;;;;5072689;28;20093;-53
2023/11/11 03:01:08;;;;;;;4.32;2.38;;;333.50;2329.60;;;;;;5072106;28;20111;-55
2023/11/11 03:03:34;;;;;;;3.80;2.45;;;333.50;2329.60;;;;;;5072403;28;20036;-54
2023/11/11 03:06:03;;;;;;;9.05;3.00;;;333.50;2329.60;;;;;;5071945;28;20459;-54
2023/11/11 03:08:29;;;;;;;6.10;2.33;;;333.50;2329.60;;;;;;5071986;28;20024;-54
2023/11/11 03:10:54;;;;;;;4.88;2.60;;;333.50;2329.60;;;;;;5072211;28;20031;-54
2023/11/11 03:13:20;;;;;;;4.18;2.10;;;333.50;2329.60;;;;;;5071939;28;20083;-54
2023/11/11 03:15:46;;;;;;;5.50;2.28;;;333.50;2329.60;;;;;;5070887;28;20624;-55
2023/11/11 03:18:12;;;;;;;5.22;2.20;;;333.50;2329.60;;;;;;5071991;28;20099;-54
2023/11/11 03:20:37;;;;;;;5.35;2.38;;;333.50;2329.60;;;;;;5071673;28;20035;-54
2023/11/11 03:23:03;;;;;;;4.65;2.33;;;333.40;2329.60;;;;;;5072039;28;20040;-54
2023/11/11 03:25:29;;;;;;;5.07;2.55;;;333.40;2329.60;;;;;;5071778;28;20496;-54
2023/11/11 03:27:55;;;;;;;5.30;3.42;;;333.40;2329.60;;;;;;5072094;28;20028;-55
2023/11/11 03:30:21;;;;;;;3.60;2.70;;;333.40;2329.60;;;;;;5071890;28;20102;-54
2023/11/11 03:32:47;;;;;;;3.33;2.17;;;333.40;2329.60;;;;;;5071841;28;20032;-54
2023/11/11 03:35:12;;;;;;;3.13;2.15;;;333.40;2329.60;;;;;;5071346;28;20016;-55
2023/11/11 03:37:38;;;;;;;3.70;2.20;;;333.40;2329.60;;;;;;5071745;28;20024;-54
2023/11/11 03:40:06;;;;;;;4.90;2.53;;;333.30;2329.60;;;;;;5071828;28;20479;-53
2023/11/11 03:42:32;;;;;;;3.42;2.17;;;333.40;2329.60;;;;;;5071609;28;20033;-54
2023/11/11 03:44:58;;;;;;;3.50;2.00;;;333.30;2329.60;;;;;;5071550;28;20379;-53
2023/11/11 03:47:23;;;;;;;4.15;2.22;;;333.30;2329.60;;;;;;5071762;28;20078;-54
2023/11/11 03:49:49;;;;;;;2.60;1.50;;;333.30;2329.60;;;;;;5071212;28;20447;-54
2023/11/11 03:52:15;;;;;;;5.03;2.70;;;333.20;2329.60;;;;;;5071594;28;20112;-54
2023/11/11 03:54:40;;;;;;;3.95;2.33;;;333.20;2329.60;;;;;;5071579;28;20549;-54
2023/11/11 03:57:06;;;;;;;5.47;2.58;;;333.20;2329.60;;;;;;5071360;28;20027;-54
2023/11/11 03:59:34;;;;;;;6.07;2.20;;;333.20;2329.60;;;;;;5071425;28;20020;-54
2023/11/11 04:02:00;;;;;;;4.63;2.80;;;333.20;2329.60;;;;;;5070800;28;20118;-54
2023/11/11 04:04:25;;;;;;;4.50;2.33;;;333.10;2329.60;;;;;;5071001;28;20409;-54
2023/11/11 04:06:51;;;;;;;3.13;1.85;;;333.00;2329.60;;;;;;5071650;28;20029;-54
2023/11/11 04:09:17;;;;;;;4.45;2.20;;;333.00;2329.60;;;;;;5071086;28;20016;-54
2023/11/11 04:11:43;;;;;;;4.75;2.38;;;333.20;2329.60;;;;;;5071245;28;20378;-53
2023/11/11 04:14:08;;;;;;;5.75;1.90;;;333.00;2329.60;;;;;;5070943;28;20534;-54
2023/11/11 04:16:35;;;;;;;20.75;15.40;;;333.10;2329.60;;;;;;5070995;28;20086;-54
2023/11/11 04:19:00;;;;;;;24.42;16.02;;;333.10;2329.60;;;;;;5070766;28;20028;-54
2023/11/11 04:21:26;;;;;;;16.75;10.23;;;333.10;2329.60;;;;;;5070793;28;20111;-54
2023/11/11 04:23:52;;;;;;;17.75;12.18;;;333.20;2329.60;;;;;;5071242;28;20024;-54
2023/11/11 04:26:17;;;;;;;10.20;6.72;;;333.10;2329.60;;;;;;5070611;28;20323;-55
2023/11/11 04:28:44;;;;;;;5.45;3.55;;;333.10;2329.60;;;;;;5070904;28;20039;-54
2023/11/11 04:31:12;;;;;;;4.10;2.80;;;333.10;2329.60;;;;;;5070693;28;20095;-54
2023/11/11 04:33:38;;;;;;;5.32;3.17;;;333.20;2329.60;;;;;;5070408;28;20021;-53
2023/11/11 04:36:04;;;;;;;8.00;4.88;;;333.00;2329.60;;;;;;5070688;28;20025;-54
2023/11/11 04:38:30;;;;;;;6.55;3.80;;;332.80;2329.60;;;;;;5070659;28;20027;-55
2023/11/11 04:40:57;;;;;;;8.25;4.93;;;332.90;2329.60;;;;;;5070415;28;22020;-54
2023/11/11 04:43:22;;;;;;;8.02;4.30;;;332.80;2329.60;;;;;;5070458;28;20040;-54
2023/11/11 04:45:48;;;;;;;7.20;3.78;;;332.80;2329.60;;;;;;5069448;28;20021;-54
2023/11/11 04:48:14;;;;;;;5.25;2.85;;;308.10;2304.00;;;;;;5070496;28;20028;-54
2023/11/11 04:50:40;;;;;;;4.55;3.22;;;332.80;2329.60;;;;;;5070101;28;20017;-55
2023/11/11 04:53:07;;;;;;;5.22;3.08;;;308.10;2304.00;;;;;;5070176;28;20521;-54
2023/11/11 04:55:33;;;;;;;5.13;2.45;;;308.00;2304.00;;;;;;5070260;28;20020;-54
2023/11/11 04:57:59;;;;;;;5.40;2.17;;;307.90;2304.00;;;;;;5070113;28;20036;-54
2023/11/11 05:00:25;;;;;;;4.20;2.17;;;307.80;2304.00;;;;;;5070348;28;20049;-55
2023/11/11 05:02:50;;;;;;;4.70;2.20;;;307.90;2304.00;;;;;;5069967;28;20075;-54
2023/11/11 05:05:16;;;;;;;4.68;1.80;;;307.80;2304.00;;;;;;5069666;28;20028;-53
2023/11/11 05:07:43;;;;;;;4.90;2.25;;;307.80;2304.00;;;;;;5069214;28;20124;-54
2023/11/11 05:10:09;;;;;;;4.93;2.15;;;307.80;2304.00;;;;;;5069963;28;20059;-54
2023/11/11 05:12:38;;;;;;;4.13;2.45;;;307.60;2304.00;;;;;;5069847;28;21021;-54
2023/11/11 05:15:13;;;;;;;4.20;2.13;;;307.70;2304.00;;;;;;5070006;28;20119;-53
2023/11/11 05:17:44;;;;;;;5.10;2.60;;;307.80;2304.00;;;;;;5069777;28;20039;-54
2023/11/11 05:20:11;;;;;;;5.15;2.95;;;307.80;2304.00;;;;;;5069596;28;20111;-54
2023/11/11 05:22:37;;;;;;;5.20;2.60;;;307.80;2304.00;;;;;;5069647;28;20028;-55
2023/11/11 05:25:04;;;;;;;3.65;2.13;;;307.80;2304.00;;;;;;5069818;28;20016;-54
2023/11/11 05:27:30;;;;;;;3.67;2.42;;;307.90;2304.00;;;;;;5069704;28;20125;-54
2023/11/11 05:29:56;;;;;;;3.75;2.10;;;307.80;2304.00;;;;;;5069484;28;20020;-55
2023/11/11 05:32:22;;;;;;;4.60;2.80;;;307.80;2304.00;;;;;;5069879;28;20089;-53
2023/11/11 05:34:48;;;;;;;5.15;2.58;;;307.80;2304.00;;;;;;5069654;28;20474;-54
2023/11/11 05:37:14;;;;;;;5.85;2.40;;;307.80;2304.00;;;;;;5069618;28;20419;-54
2023/11/11 05:39:44;;;;;;;5.20;2.78;;;307.80;2304.00;;;;;;5069393;28;20150;-54
2023/11/11 05:42:11;;;;;;;20.52;14.68;;;307.80;2304.00;;;;;;5069287;28;20043;-53
2023/11/11 05:44:40;;;;;;;8.05;4.53;;;307.90;2304.00;;;;;;5069273;28;20032;-54
2023/11/11 05:47:14;;;;;;;39.88;22.38;;;308.00;2304.00;;;;;;5069608;28;20024;-54
2023/11/11 05:49:40;;;;;;;18.52;13.52;;;308.00;2304.00;;;;;;5069252;28;20021;-54
2023/11/11 05:52:06;;;;;;;14.82;12.45;;;308.10;2304.00;;;;;;5069417;28;20032;-55
2023/11/11 05:54:32;;;;;;;16.83;12.70;;;308.00;2304.00;;;;;;5069709;28;20474;-54
2023/11/11 05:56:58;;;;;;;19.05;11.50;;;308.00;2304.00;;;;;;5069133;28;20036;-54
2023/11/11 05:59:24;;;;;;;10.23;7.95;;;307.90;2304.00;;;;;;5069589;28;20016;-54
2023/11/11 06:01:51;;;;;;;31.30;25.83;;;307.90;2304.00;;;;;;5069117;28;20043;-54
2023/11/11 06:04:16;;;;;;;29.15;23.83;;;307.80;2304.00;;;;;;5069193;28;20099;-55
2023/11/11 06:06:42;;;;;;;16.30;11.98;;;307.90;2304.00;;;;;;5069382;28;20056;-56
2023/11/11 06:09:14;;;;;;;18.80;12.93;;;307.80;2304.00;;;;;;5069322;28;20034;-54
2023/11/11 06:11:45;;;;;;;11.70;10.03;;;307.90;2304.00;;;;;;5069065;28;20090;-53
2023/11/11 06:14:16;;;;;;;17.40;10.80;;;308.00;2304.00;;;;;;5068958;28;20041;-54
2023/11/11 06:16:42;;;;;;;25.63;18.85;;;307.90;2304.00;;;;;;5069249;28;20035;-55
2023/11/11 06:19:08;;;;;;;23.40;16.67;;;308.00;2304.00;;;;;;5069215;28;20029;-54
2023/11/11 06:21:34;;;;;;;10.05;8.27;;;308.10;2304.00;;;;;;5068995;28;20036;-54
2023/11/11 06:24:01;;;;;;;18.42;13.10;;;332.80;2329.60;;;;;;5069045;28;20070;-53
2023/11/11 06:26:28;;;;;;;43.60;36.45;;;332.90;2329.60;;;;;;5068968;28;20035;-54
2023/11/11 06:28:55;;;;;;;36.55;28.42;;;308.00;2304.00;;;;;;5069363;28;20025;-54
2023/11/11 06:31:23;;;;;;;22.35;19.95;;;308.10;2304.00;;;;;;5068905;28;20112;-54
2023/11/11 06:33:50;;;;;;;117.38;90.35;;;332.80;2329.60;;;;;;5068888;28;20035;-55
2023/11/11 06:36:16;;;;;;;65.75;55.20;;;308.10;2304.00;;;;;;5069025;28;20056;-55
2023/11/11 06:38:42;;;;;;;45.55;37.55;;;332.90;2329.60;;;;;;5068903;28;20100;-54
2023/11/11 06:41:08;;;;;;;55.72;45.72;;;333.10;2329.60;;;;;;5068721;28;20061;-55
2023/11/11 06:43:34;;;;;;;52.75;38.83;;;333.30;2329.60;;;;;;5068809;28;20039;-54
2023/11/11 06:46:01;;;;;;;37.67;28.75;;;333.50;2329.60;;;;;;5068706;28;20021;-54
2023/11/11 06:48:26;;;;;;;52.05;42.80;;;333.50;2329.60;;;;;;5068751;28;20021;-55
2023/11/11 06:50:53;;;;;;;50.33;36.47;;;333.70;2329.60;;;;;;5069091;28;20150;-54
2023/11/11 06:53:19;;;;;;;58.50;45.42;;;358.40;2329.60;;;;;;5068651;28;20020;-53
2023/11/11 06:55:46;;;;;;;33.92;29.92;;;358.50;2329.60;;;;;;5068842;28;20033;-54
2023/11/11 06:58:12;;;;;;;30.10;24.00;;;358.70;2329.60;;;;;;5068841;28;20474;-53
2023/11/11 07:00:38;;;;;;;19.80;16.15;;;358.60;2329.60;;;;;;5068471;28;20031;-54
2023/11/11 07:03:04;;;;;;;14.82;11.13;;;358.70;2329.60;;;;;;5051366;28;20036;-54
2023/11/11 07:05:29;;;;;;;15.45;12.98;;;358.90;2329.60;;;;;;5048521;28;20360;-55
2023/11/11 07:07:55;;;;;;;20.98;16.00;;;359.00;2329.60;;;;;;5048533;28;20486;-54
2023/11/11 07:10:21;;;;;;;35.97;23.85;;;359.00;2329.60;;;;;;5051403;28;20029;-54
2023/11/11 07:12:51;;;;;;;43.22;27.42;;;358.70;2329.60;;;;;;5051879;28;20106;-55
2023/11/11 07:15:17;;;;;;;42.08;27.02;;;358.70;2329.60;;;;;;5052327;28;20032;-55
2023/11/11 07:17:44;;;;;;;32.15;23.30;;;358.50;2329.60;;;;;;5052724;28;20102;-54
2023/11/11 07:20:12;;;;;;;37.25;25.00;;;358.50;2329.60;;;;;;5051689;28;20032;-54
2023/11/11 07:22:38;;;;;;;31.98;24.80;;;358.40;2329.60;;;;;;5051730;28;20040;-54
2023/11/11 07:25:09;;;;;;;40.95;29.98;;;333.50;2329.60;;;;;;5051836;28;20027;-53
2023/11/11 07:27:35;;;;;;;32.15;27.58;;;333.40;2329.60;;;;;;5051994;28;20029;-54
2023/11/11 07:30:04;;;;;;;40.38;32.83;;;333.20;2329.60;;;;;;5071311;28;20024;-53
2023/11/11 07:32:30;;;;;;;49.67;43.13;;;333.20;2329.60;;;;;;5071676;28;20024;-54
2023/11/11 07:34:57;;;;;;;51.30;43.10;;;333.10;2329.60;;;;;;5072018;28;20029;-54
2023/11/11 07:37:26;;;;;;;44.83;38.10;;;333.30;2329.60;;;;;;5071657;28;20036;-54
2023/11/11 07:39:52;;;;;;;25.23;21.02;;;333.40;2329.60;;;;;;5071690;28;20025;-54
2023/11/11 07:42:18;;;;;;;33.25;29.85;;;333.40;2329.60;;;;;;5071268;28;20056;-54
2023/11/11 07:44:44;;;;;;;28.92;24.20;;;333.40;2329.60;;;;;;5071491;28;20493;-54
2023/11/11 07:47:10;;;;;;;42.08;33.38;;;333.50;2329.60;;;;;;5071041;28;20471;-54
2023/11/11 07:49:36;;;;;;;33.00;25.50;;;333.50;2329.60;;;;;;5071735;28;20028;-54
2023/11/11 07:52:03;;;;;;;32.00;24.38;;;333.50;2329.60;;;;;;5071205;28;20075;-54
2023/11/11 07:54:31;;;;;;;68.15;54.17;;;333.30;2329.60;;;;;;5071251;28;20027;-54
2023/11/11 07:56:57;;;;;;;51.25;38.47;;;333.40;2329.60;;;;;;5071072;28;20033;-53
2023/11/11 07:59:23;;;;;;;57.72;45.00;;;333.50;2329.60;;;;;;5071396;28;20487;-55
2023/11/11 08:01:50;;;;;;;50.15;40.15;;;333.60;2329.60;;;;;;5070973;28;20032;-54
2023/11/11 08:04:15;;;;;;;52.28;35.38;;;333.60;2329.60;;;;;;5068373;28;20028;-53
2023/11/11 08:06:43;;;;;;;81.13;72.60;;;333.60;2329.60;;;;;;5061811;28;20686;-55
2023/11/11 08:09:10;;;;;;;39.00;31.35;;;333.70;2329.60;;;;;;5066258;28;20025;-55
2023/11/11 08:11:36;;;;;;;32.10;27.92;;;333.60;2329.60;;;;;;5055980;28;20049;-55
2023/11/11 08:14:04;;;;;;;29.30;25.17;;;333.50;2329.60;;;;;;5058242;28;20056;-55
2023/11/11 08:16:30;;;;;;;26.02;23.38;;;333.70;2329.60;;;;;;5060590;28;20020;-56
2023/11/11 08:18:56;;;;;;;26.73;23.88;;;358.40;2329.60;;;;;;5059102;28;20051;-55
2023/11/11 08:21:29;;;;;;;24.10;20.10;;;358.50;2329.60;;;;;;5050993;28;20057;-55
2023/11/11 08:23:55;;;;;;;27.58;17.50;;;333.70;2329.60;;;;;;5050760;28;20044;-55
2023/11/11 08:26:22;;;;;;;17.10;15.30;;;333.70;2329.60;;;;;;5050774;28;20029;-55
2023/11/11 08:28:48;;;;;;;63.47;42.72;;;358.40;2329.60;;;;;;5050475;28;20376;-55
2023/11/11 08:31:13;;;;;;;39.35;26.70;;;333.70;2329.60;;;;;;5050811;28;20021;-55
2023/11/11 08:33:40;;;;;;;24.23;19.08;;;358.40;2329.60;;;;;;5050600;28;20487;-55
2023/11/11 08:36:07;;;;;;;22.55;16.70;;;358.50;2329.60;;;;;;5057624;28;20040;-55
2023/11/11 08:38:32;;;;;;;46.50;35.63;;;358.50;2329.60;;;;;;5052111;28;20448;-55
2023/11/11 08:40:58;;;;;;;19.75;13.95;;;333.70;2329.60;;;;;;5050329;28;20033;-55
2023/11/11 08:43:25;;;;;;;27.45;20.33;;;358.50;2329.60;;;;;;5050459;28;20032;-56
2023/11/11 08:45:51;;;;;;;12.57;8.45;;;358.40;2329.60;;;;;;5050216;28;20029;-55
2023/11/11 08:48:17;;;;;;;18.27;13.88;;;333.70;2329.60;;;;;;5068743;28;20032;-56
2023/11/11 08:50:42;;;;;;;10.35;6.38;;;358.40;2329.60;;;;;;5064373;28;20035;-55
2023/11/11 08:53:08;;;;;;;12.25;9.07;;;333.70;2329.60;;;;;;5054661;28;20036;-55
2023/11/11 08:55:34;;;;;;;43.65;29.85;;;333.70;2329.60;;;;;;5050374;28;20425;-55
2023/11/11 08:58:00;;;;;;;30.40;24.88;;;333.70;2329.60;;;;;;5050110;28;20025;-55
2023/11/11 09:00:25;;;;;;;20.25;14.75;;;358.40;2329.60;;;;;;5050178;28;20021;-56
2023/11/11 09:02:52;;;;;;;22.38;16.48;;;358.40;2329.60;;;;;;5050376;28;20032;-56
2023/11/11 09:05:20;;;;;;;19.73;15.05;;;358.40;2329.60;;;;;;5049825;28;20025;-56
2023/11/11 09:07:47;;;;;;;13.88;9.73;;;333.70;2329.60;;;;;;5050635;28;20087;-57
2023/11/11 09:10:12;;;;;;;6.50;4.90;;;333.70;2329.60;;;;;;5057472;28;20033;-55
2023/11/11 09:12:38;;;;;;;5.72;3.95;;;358.40;2329.60;;;;;;5055443;28;20067;-54
2023/11/11 09:15:05;;;;;;;6.43;4.03;;;358.60;2329.60;;;;;;5052442;28;20085;-55
2023/11/11 09:17:31;;;;;;;4.43;3.40;;;358.70;2329.60;;;;;;5049616;28;20063;-56
2023/11/11 09:19:58;;;;;;;6.55;3.92;;;358.80;2329.60;;;;;;5056865;28;20027;-56
2023/11/11 09:22:27;;;;;;;5.47;3.40;;;359.10;2329.60;;;;;;5069234;28;20044;-55
2023/11/11 09:24:53;;;;;;;120.65;83.65;;;384.00;2329.60;;;;;;5069809;28;20053;-56
2023/11/11 09:27:19;;;;;;;215.02;156.07;;;384.10;2329.60;;;;;;5060233;28;20108;-53
2023/11/11 09:29:44;;;;;;;55.15;48.58;;;359.30;2329.60;;;;;;5069506;28;20033;-64
2023/11/11 09:32:11;;;;;;;9.77;8.77;;;359.10;2329.60;;;;;;5069211;28;20021;-63
2023/11/11 09:34:42;;;;;;;18.02;11.98;;;359.30;2329.60;;;;;;5069500;28;20348;-67
2023/11/11 09:37:08;;;;;;;10.25;7.03;;;359.30;2329.60;;;;;;5049434;28;20020;-67
2023/11/11 09:39:33;;;;;;;10.95;9.85;;;359.30;2329.60;;;;;;5049572;28;20036;-68
2023/11/11 09:41:59;;;;;;;11.27;9.88;;;359.30;2329.60;;;;;;5049155;28;20115;-67
2023/11/11 09:44:25;;;;;;;5.90;4.75;;;384.10;2329.60;;;;;;5049596;28;20021;-67
2023/11/11 09:46:56;;;;;;;11.80;10.23;;;384.30;2329.60;;;;;;5049685;28;20037;-68
2023/11/11 09:49:22;;;;;;;20.20;16.08;;;384.40;2329.60;;;;;;5056544;28;20067;-67
2023/11/11 09:51:49;;;;;;;7.60;6.38;;;384.80;2329.60;;;;;;5069490;28;20483;-67
2023/11/11 09:54:15;;;;;;;27.55;22.45;;;384.90;2329.60;;;;;;5052786;28;20028;-69
2023/11/11 09:56:43;;;;;;;19.45;15.18;;;409.70;2355.20;;;;;;5057601;28;20028;-68
2023/11/11 09:59:12;;;;;;;2.25;1.70;;;409.70;2355.20;;;;;;5059542;28;20029;-66
2023/11/11 10:01:40;;;;;;;13.43;12.00;;;384.90;2329.60;;;;;;5058684;28;20028;-67
2023/11/11 10:04:06;;;;;;;12.82;11.63;;;384.90;2329.60;;;;;;5059216;28;20028;-66
2023/11/11 10:06:33;;;;;;;3.88;2.78;;;384.80;2329.60;;;;;;5060531;28;20024;-67
2023/11/11 10:09:00;;;;;;;3.28;2.80;;;384.80;2329.60;;;;;;5069132;28;20040;-66
2023/11/11 10:11:26;;;;;;;2.05;1.50;;;384.80;2329.60;;;;;;5069020;28;20075;-67
2023/11/11 10:13:54;;;;;;;2.72;2.00;;;384.80;2329.60;;;;;;5069240;28;20052;-68
2023/11/11 10:16:25;;;;;;;15.25;13.38;;;384.60;2329.60;;;;;;5069040;28;20099;-67
2023/11/11 10:18:58;;;;;;;5.68;3.67;;;384.40;2329.60;;;;;;5069185;28;20024;-67
2023/11/11 10:21:25;;;;;;;11.98;9.63;;;384.40;2329.60;;;;;;5069166;28;20017;-67
2023/11/11 10:23:55;;;;;;;44.50;34.13;;;384.30;2329.60;;;;;;5069095;28;20116;-68
2023/11/11 10:26:21;;;;;;;23.48;18.42;;;384.40;2329.60;;;;;;5069050;28;20403;-66
2023/11/11 10:28:51;;;;;;;18.58;13.10;;;384.50;2329.60;;;;;;5068547;28;20032;-67
2023/11/11 10:31:24;;;;;;;6.05;3.90;;;384.70;2329.60;;;;;;5068848;28;20021;-66
2023/11/11 10:33:50;;;;;;;9.98;5.85;;;384.90;2329.60;;;;;;5068981;28;20024;-67
2023/11/11 10:36:17;;;;;;;103.97;72.97;;;409.70;2355.20;;;;;;5068990;28;20041;-66
2023/11/11 10:38:43;;;;;;;273.58;199.40;;;409.60;2355.20;;;;;;5069093;28;20074;-67
2023/11/11 10:41:09;;;;;;;48.95;37.58;;;384.90;2329.60;;;;;;5068729;28;20115;-66
2023/11/11 10:43:36;;;;;;;10.43;6.70;;;409.60;2355.20;;;;;;5069028;28;20037;-66
2023/11/11 10:46:02;;;;;;;78.50;66.13;;;409.70;2355.20;;;;;;5072824;28;20051;-68
2023/11/11 10:48:32;;;;;;;35.97;27.20;;;384.90;2329.60;;;;;;5068688;28;20029;-66
2023/11/11 10:50:58;;;;;;;22.02;15.82;;;384.80;2329.60;;;;;;5052573;28;20029;-67
2023/11/11 10:53:27;;;;;;;42.28;34.60;;;384.70;2329.60;;;;;;5052853;28;20025;-67
2023/11/11 10:55:54;;;;;;;21.73;13.40;;;384.80;2329.60;;;;;;5052761;28;20029;-68
2023/11/11 10:58:20;;;;;;;30.20;24.52;;;384.60;2329.60;;;;;;5057636;28;20042;-67
2023/11/11 11:00:48;;;;;;;57.50;48.03;;;384.60;2329.60;;;;;;5070561;28;20032;-66
2023/11/11 11:03:17;;;;;;;35.40;30.42;;;384.70;2329.60;;;;;;5066287;28;20082;-68
2023/11/11 11:05:52;;;;;;;85.82;76.43;;;409.60;2355.20;;;;;;5060943;28;20028;-68
2023/11/11 11:08:26;;;;;;;26.42;19.08;;;409.80;2355.20;;;;;;5058420;28;20029;-67
2023/11/11 11:11:11;;;;;;;9.57;8.13;;;410.20;2355.20;;;;;;5055223;28;20086;-67
2023/11/11 11:13:38;;;;;;;13.10;10.80;;;410.50;2355.20;;;;;;5055480;28;20043;-68
2023/11/11 11:16:05;;;;;;;17.75;5.90;;;435.20;2355.20;;;;;;5065708;28;20074;-66
2023/11/11 11:18:31;;;;;;;19.83;14.05;;;435.40;2355.20;;;;;;5063190;28;20013;-66
2023/11/11 11:21:02;;;;;;;6.35;4.85;;;435.60;2355.20;;;;;;5062014;28;20036;-66
2023/11/11 11:23:36;;;;;;;9.27;6.75;;;435.50;2355.20;;;;;;5062508;28;20068;-67
2023/11/11 11:26:02;;;;;;;31.20;23.63;;;435.40;2355.20;;;;;;5064305;28;20104;-68
2023/11/11 11:28:29;;;;;;;19.38;17.30;;;435.50;2304.00;;;;;;5060683;28;20029;-67
2023/11/11 11:31:02;;;;;;;18.75;15.48;;;435.60;2227.20;;;;;;5062560;28;20033;-68
2023/11/11 11:33:32;;;;;;;11.23;10.07;;;435.60;2252.80;;;;;;5071731;28;20031;-67
2023/11/11 11:36:01;;;;;;;35.10;21.83;;;435.80;2278.40;;;;;;5071762;28;20067;-67
2023/11/11 11:38:31;;;;;;;8.55;6.53;;;435.70;2252.80;;;;;;5071514;28;20025;-68
2023/11/11 11:41:11;;;;;;;15.13;11.55;;;436.10;2252.80;;;;;;5065714;28;20074;-67
2023/11/11 11:43:39;;;;;;;2.63;1.42;;;460.90;2227.20;;;;;;5056913;28;20059;-68
2023/11/11 11:46:05;;;;;;;5.20;4.07;;;460.90;2176.00;;;;;;5051810;28;20048;-67
2023/11/11 11:48:33;;;;;;;25.83;18.65;;;436.00;2227.20;;;;;;5051709;28;20061;-67
2023/11/11 11:51:18;;;;;;;11.13;7.50;;;436.00;2201.60;;;;;;5053055;28;20029;-67
2023/11/11 11:53:46;;;;;;;5.88;4.95;;;435.80;2201.60;;;;;;5061904;28;20021;-68
2023/11/11 11:56:29;;;;;;;3.22;2.25;;;435.80;2176.00;;;;;;5059956;28;20040;-68
2023/11/11 11:58:55;;;;;;;120.95;84.45;;;435.90;2201.60;;;;;;5068693;28;20031;-67
2023/11/11 12:01:30;;;;;;;26.10;17.90;;;435.90;2176.00;;;;;;5061672;28;20028;-67
2023/11/11 12:03:57;;;;;;;10.45;6.03;;;436.10;2201.60;;;;;;5056857;28;20434;-68